sensor_id;sensor_type;location;lat;lon;timestamp;pressure;altitude;pressure_sealevel;temperature;humidity
17054;BME280;8643;48.824;11.422;2023-01-16T00:02:19;95935.78;;;-0.41;100.00
17054;BME280;8643;48.824;11.422;2023-01-16T00:04:49;95937.78;;;-0.51;100.00
17054;BME280;8643;48.824;11.422;2023-01-16T00:07:18;95933.59;;;-0.63;100.00
17054;BME280;8643;48.824;11.422;2023-01-16T00:09:46;95937.13;;;-0.67;100.00
17054;BME280;8643;48.824;11.422;2023-01-16T00:12:14;95932.47;;;-0.57;100.00
17054;BME280;8643;48.824;11.422;2023-01-16T00:14:43;95928.38;;;-0.78;100.00
17054;BME280;8643;48.824;11.422;2023-01-16T00:17:12;95925.53;;;-0.92;100.00
17054;BME280;8643;48.824;11.422;2023-01-16T00:19:40;95914.59;;;-1.01;100.00
17054;BME280;8643;48.824;11.422;2023-01-16T00:22:10;95911.38;;;-1.03;100.00
17054;BME280;8643;48.824;11.422;2023-01-16T00:24:38;95910.63;;;-1.08;100.00
17054;BME280;8643;48.824;11.422;2023-01-16T00:27:07;95903.97;;;-1.16;100.00
17054;BME280;8643;48.824;11.422;2023-01-16T00:29:36;95909.06;;;-1.15;100.00
17054;BME280;8643;48.824;11.422;2023-01-16T00:32:04;95908.59;;;-1.22;100.00
17054;BME280;8643;48.824;11.422;2023-01-16T00:34:33;95900.25;;;-1.20;100.00
17054;BME280;8643;48.824;11.422;2023-01-16T00:37:01;95905.13;;;-1.27;100.00
17054;BME280;8643;48.824;11.422;2023-01-16T00:39:31;95905.22;;;-1.38;100.00
17054;BME280;8643;48.824;11.422;2023-01-16T00:41:59;95901.00;;;-1.49;100.00
17054;BME280;8643;48.824;11.422;2023-01-16T00:44:28;95896.25;;;-1.57;100.00
17054;BME280;8643;48.824;11.422;2023-01-16T00:46:56;95897.88;;;-1.61;100.00
17054;BME280;8643;48.824;11.422;2023-01-16T00:49:25;95890.13;;;-1.63;100.00
17054;BME280;8643;48.824;11.422;2023-01-16T00:51:53;95890.13;;;-1.68;100.00
17054;BME280;8643;48.824;11.422;2023-01-16T00:54:22;95891.19;;;-1.64;100.00
17054;BME280;8643;48.824;11.422;2023-01-16T00:56:52;95889.56;;;-1.65;100.00
17054;BME280;8643;48.824;11.422;2023-01-16T00:59:20;95881.31;;;-1.74;100.00
17054;BME280;8643;48.824;11.422;2023-01-16T01:01:49;95877.31;;;-1.76;100.00
17054;BME280;8643;48.824;11.422;2023-01-16T01:04:18;95872.50;;;-1.79;100.00
17054;BME280;8643;48.824;11.422;2023-01-16T01:06:46;95863.38;;;-1.78;100.00
17054;BME280;8643;48.824;11.422;2023-01-16T01:09:14;95868.47;;;-1.77;100.00
17054;BME280;8643;48.824;11.422;2023-01-16T01:11:43;95859.25;;;-1.66;100.00
17054;BME280;8643;48.824;11.422;2023-01-16T01:14:13;95849.06;;;-1.34;100.00
17054;BME280;8643;48.824;11.422;2023-01-16T01:16:41;95829.13;;;-0.99;100.00
17054;BME280;8643;48.824;11.422;2023-01-16T01:19:10;95827.59;;;-0.81;100.00
17054;BME280;8643;48.824;11.422;2023-01-16T01:21:38;95833.06;;;-0.67;100.00
17054;BME280;8643;48.824;11.422;2023-01-16T01:24:07;95822.94;;;-0.51;100.00
17054;BME280;8643;48.824;11.422;2023-01-16T01:26:36;95822.56;;;-0.44;100.00
17054;BME280;8643;48.824;11.422;2023-01-16T01:29:05;95816.63;;;-0.41;100.00
17054;BME280;8643;48.824;11.422;2023-01-16T01:31:34;95815.75;;;-0.37;100.00
17054;BME280;8643;48.824;11.422;2023-01-16T01:34:03;95810.16;;;-0.40;100.00
17054;BME280;8643;48.824;11.422;2023-01-16T01:36:32;95812.03;;;-0.60;100.00
17054;BME280;8643;48.824;11.422;2023-01-16T01:39:00;95806.31;;;-0.77;100.00
17054;BME280;8643;48.824;11.422;2023-01-16T01:41:29;95802.94;;;-0.88;100.00
17054;BME280;8643;48.824;11.422;2023-01-16T01:43:57;95800.53;;;-0.89;100.00
17054;BME280;8643;48.824;11.422;2023-01-16T01:46:30;95796.13;;;-1.04;100.00
17054;BME280;8643;48.824;11.422;2023-01-16T01:49:12;95792.97;;;-1.12;100.00
17054;BME280;8643;48.824;11.422;2023-01-16T01:51:44;95787.94;;;-1.18;100.00
17054;BME280;8643;48.824;11.422;2023-01-16T01:54:16;95782.63;;;-1.23;100.00
17054;BME280;8643;48.824;11.422;2023-01-16T01:56:49;95781.06;;;-1.30;100.00
17054;BME280;8643;48.824;11.422;2023-01-16T01:59:24;95775.19;;;-1.32;100.00
17054;BME280;8643;48.824;11.422;2023-01-16T02:01:55;95765.63;;;-1.43;100.00
17054;BME280;8643;48.824;11.422;2023-01-16T02:04:30;95772.38;;;-1.45;100.00
17054;BME280;8643;48.824;11.422;2023-01-16T02:07:04;95756.03;;;-1.49;100.00
17054;BME280;8643;48.824;11.422;2023-01-16T02:09:34;95757.38;;;-1.52;100.00
17054;BME280;8643;48.824;11.422;2023-01-16T02:12:08;95746.06;;;-1.49;100.00
17054;BME280;8643;48.824;11.422;2023-01-16T02:14:41;95748.75;;;-1.49;100.00
17054;BME280;8643;48.824;11.422;2023-01-16T02:17:12;95742.59;;;-1.49;100.00
17054;BME280;8643;48.824;11.422;2023-01-16T02:20:17;95735.88;;;-1.46;100.00
17054;BME280;8643;48.824;11.422;2023-01-16T02:23:29;95733.41;;;-1.43;100.00
17054;BME280;8643;48.824;11.422;2023-01-16T02:26:37;95719.47;;;-1.45;100.00
17054;BME280;8643;48.824;11.422;2023-01-16T02:29:40;95718.22;;;-1.53;100.00
17054;BME280;8643;48.824;11.422;2023-01-16T02:32:29;95712.34;;;-1.60;100.00
17054;BME280;8643;48.824;11.422;2023-01-16T02:35:21;95719.44;;;-1.69;100.00
17054;BME280;8643;48.824;11.422;2023-01-16T02:37:58;95711.47;;;-1.79;100.00
17054;BME280;8643;48.824;11.422;2023-01-16T02:40:38;95700.00;;;-1.85;100.00
17054;BME280;8643;48.824;11.422;2023-01-16T02:43:22;95701.59;;;-1.84;100.00
17054;BME280;8643;48.824;11.422;2023-01-16T02:46:06;95698.38;;;-1.86;100.00
17054;BME280;8643;48.824;11.422;2023-01-16T02:48:47;95684.50;;;-1.93;100.00
17054;BME280;8643;48.824;11.422;2023-01-16T02:51:30;95683.13;;;-1.91;100.00
17054;BME280;8643;48.824;11.422;2023-01-16T02:54:07;95680.75;;;-1.92;100.00
17054;BME280;8643;48.824;11.422;2023-01-16T02:56:43;95672.22;;;-1.99;100.00
17054;BME280;8643;48.824;11.422;2023-01-16T02:59:15;95668.31;;;-2.12;100.00
17054;BME280;8643;48.824;11.422;2023-01-16T03:01:46;95658.41;;;-2.17;100.00
17054;BME280;8643;48.824;11.422;2023-01-16T03:04:51;95656.78;;;-2.13;100.00
17054;BME280;8643;48.824;11.422;2023-01-16T03:07:46;95644.53;;;-2.24;100.00
17054;BME280;8643;48.824;11.422;2023-01-16T03:10:42;95640.19;;;-2.15;100.00
17054;BME280;8643;48.824;11.422;2023-01-16T03:13:22;95628.84;;;-2.07;100.00
17054;BME280;8643;48.824;11.422;2023-01-16T03:16:07;95625.34;;;-2.07;100.00
17054;BME280;8643;48.824;11.422;2023-01-16T03:18:50;95627.28;;;-2.13;100.00
17054;BME280;8643;48.824;11.422;2023-01-16T03:21:34;95619.75;;;-2.11;100.00
17054;BME280;8643;48.824;11.422;2023-01-16T03:24:22;95613.31;;;-2.10;100.00
17054;BME280;8643;48.824;11.422;2023-01-16T03:27:00;95611.69;;;-2.11;100.00
17054;BME280;8643;48.824;11.422;2023-01-16T03:29:42;95605.03;;;-2.13;100.00
17054;BME280;8643;48.824;11.422;2023-01-16T03:32:22;95588.75;;;-2.22;100.00
17054;BME280;8643;48.824;11.422;2023-01-16T03:35:00;95582.34;;;-2.26;100.00
17054;BME280;8643;48.824;11.422;2023-01-16T03:37:35;95575.44;;;-2.32;100.00
17054;BME280;8643;48.824;11.422;2023-01-16T03:40:12;95568.72;;;-2.30;100.00
17054;BME280;8643;48.824;11.422;2023-01-16T03:42:45;95564.38;;;-2.26;100.00
17054;BME280;8643;48.824;11.422;2023-01-16T03:45:21;95560.91;;;-2.26;100.00
17054;BME280;8643;48.824;11.422;2023-01-16T03:47:59;95559.28;;;-2.27;100.00
17054;BME280;8643;48.824;11.422;2023-01-16T03:50:29;95552.91;;;-2.31;100.00
17054;BME280;8643;48.824;11.422;2023-01-16T03:53:10;95553.47;;;-2.34;100.00
17054;BME280;8643;48.824;11.422;2023-01-16T03:55:49;95540.06;;;-2.34;100.00
17054;BME280;8643;48.824;11.422;2023-01-16T03:58:26;95543.31;;;-2.37;100.00
17054;BME280;8643;48.824;11.422;2023-01-16T04:01:11;95523.44;;;-2.36;100.00
17054;BME280;8643;48.824;11.422;2023-01-16T04:03:51;95514.09;;;-2.39;100.00
17054;BME280;8643;48.824;11.422;2023-01-16T04:06:32;95507.41;;;-2.42;100.00
17054;BME280;8643;48.824;11.422;2023-01-16T04:09:09;95496.53;;;-2.50;100.00
17054;BME280;8643;48.824;11.422;2023-01-16T04:11:39;95486.69;;;-2.60;100.00
17054;BME280;8643;48.824;11.422;2023-01-16T04:14:11;95490.28;;;-2.70;100.00
17054;BME280;8643;48.824;11.422;2023-01-16T04:16:42;95485.72;;;-2.69;100.00
17054;BME280;8643;48.824;11.422;2023-01-16T04:19:13;95475.59;;;-2.78;100.00
17054;BME280;8643;48.824;11.422;2023-01-16T04:21:45;95465.69;;;-2.77;100.00
17054;BME280;8643;48.824;11.422;2023-01-16T04:24:16;95459.81;;;-2.79;100.00
17054;BME280;8643;48.824;11.422;2023-01-16T04:26:45;95451.09;;;-2.90;100.00
17054;BME280;8643;48.824;11.422;2023-01-16T04:29:14;95452.09;;;-2.86;100.00
17054;BME280;8643;48.824;11.422;2023-01-16T04:31:43;95448.63;;;-2.86;100.00
17054;BME280;8643;48.824;11.422;2023-01-16T04:34:11;95444.41;;;-2.92;100.00
17054;BME280;8643;48.824;11.422;2023-01-16T04:36:40;95443.22;;;-2.81;100.00
17054;BME280;8643;48.824;11.422;2023-01-16T04:39:08;95434.44;;;-2.87;100.00
17054;BME280;8643;48.824;11.422;2023-01-16T04:41:38;95430.13;;;-2.83;100.00
17054;BME280;8643;48.824;11.422;2023-01-16T04:44:09;95424.41;;;-2.76;100.00
17054;BME280;8643;48.824;11.422;2023-01-16T04:46:37;95422.44;;;-2.65;100.00
17054;BME280;8643;48.824;11.422;2023-01-16T04:49:06;95417.81;;;-2.60;100.00
17054;BME280;8643;48.824;11.422;2023-01-16T04:51:35;95405.22;;;-2.59;100.00
17054;BME280;8643;48.824;11.422;2023-01-16T04:54:06;95406.31;;;-2.60;100.00
17054;BME280;8643;48.824;11.422;2023-01-16T04:56:35;95386.56;;;-2.69;100.00
17054;BME280;8643;48.824;11.422;2023-01-16T04:59:05;95390.16;;;-2.79;100.00
17054;BME280;8643;48.824;11.422;2023-01-16T05:01:34;95377.66;;;-2.89;100.00
17054;BME280;8643;48.824;11.422;2023-01-16T05:04:06;95369.97;;;-2.96;100.00
17054;BME280;8643;48.824;11.422;2023-01-16T05:06:35;95359.75;;;-2.93;100.00
17054;BME280;8643;48.824;11.422;2023-01-16T05:09:05;95346.38;;;-2.93;100.00
17054;BME280;8643;48.824;11.422;2023-01-16T05:11:35;95347.63;;;-2.86;100.00
17054;BME280;8643;48.824;11.422;2023-01-16T05:14:05;95341.19;;;-2.85;100.00
17054;BME280;8643;48.824;11.422;2023-01-16T05:16:35;95338.00;;;-2.87;100.00
17054;BME280;8643;48.824;11.422;2023-01-16T05:19:05;95343.88;;;-2.85;100.00
17054;BME280;8643;48.824;11.422;2023-01-16T05:21:33;95333.53;;;-2.97;100.00
17054;BME280;8643;48.824;11.422;2023-01-16T05:24:02;95330.84;;;-2.91;100.00
17054;BME280;8643;48.824;11.422;2023-01-16T05:26:31;95322.72;;;-2.86;100.00
17054;BME280;8643;48.824;11.422;2023-01-16T05:29:00;95321.34;;;-2.84;100.00
17054;BME280;8643;48.824;11.422;2023-01-16T05:31:30;95323.19;;;-2.79;100.00
17054;BME280;8643;48.824;11.422;2023-01-16T05:33:58;95321.31;;;-2.79;100.00
17054;BME280;8643;48.824;11.422;2023-01-16T05:36:27;95308.72;;;-2.78;100.00
17054;BME280;8643;48.824;11.422;2023-01-16T05:38:56;95312.97;;;-2.77;100.00
17054;BME280;8643;48.824;11.422;2023-01-16T05:41:25;95303.13;;;-2.82;100.00
17054;BME280;8643;48.824;11.422;2023-01-16T05:43:54;95295.72;;;-2.90;100.00
17054;BME280;8643;48.824;11.422;2023-01-16T05:46:22;95294.41;;;-2.92;100.00
17054;BME280;8643;48.824;11.422;2023-01-16T05:48:53;95296.59;;;-2.95;100.00
17054;BME280;8643;48.824;11.422;2023-01-16T05:51:21;95285.34;;;-2.97;100.00
17054;BME280;8643;48.824;11.422;2023-01-16T05:53:50;95285.19;;;-3.05;100.00
17054;BME280;8643;48.824;11.422;2023-01-16T05:56:21;95276.16;;;-3.15;100.00
17054;BME280;8643;48.824;11.422;2023-01-16T05:58:49;95272.19;;;-3.17;100.00
17054;BME280;8643;48.824;11.422;2023-01-16T06:01:18;95263.09;;;-3.16;100.00
17054;BME280;8643;48.824;11.422;2023-01-16T06:03:47;95257.91;;;-3.07;100.00
17054;BME280;8643;48.824;11.422;2023-01-16T06:06:16;95257.03;;;-3.03;100.00
17054;BME280;8643;48.824;11.422;2023-01-16T06:08:46;95247.06;;;-2.97;100.00
17054;BME280;8643;48.824;11.422;2023-01-16T06:11:14;95235.75;;;-2.94;100.00
17054;BME280;8643;48.824;11.422;2023-01-16T06:13:45;95228.81;;;-2.95;100.00
17054;BME280;8643;48.824;11.422;2023-01-16T06:16:13;95224.06;;;-2.98;100.00
17054;BME280;8643;48.824;11.422;2023-01-16T06:18:42;95227.59;;;-3.03;100.00
17054;BME280;8643;48.824;11.422;2023-01-16T06:21:11;95223.16;;;-3.13;100.00
17054;BME280;8643;48.824;11.422;2023-01-16T06:23:40;95216.03;;;-3.22;100.00
17054;BME280;8643;48.824;11.422;2023-01-16T06:26:09;95208.44;;;-3.39;100.00
17054;BME280;8643;48.824;11.422;2023-01-16T06:28:38;95208.44;;;-3.39;100.00
17054;BME280;8643;48.824;11.422;2023-01-16T06:31:07;95199.91;;;-3.41;100.00
17054;BME280;8643;48.824;11.422;2023-01-16T06:33:36;95192.38;;;-3.39;100.00
17054;BME280;8643;48.824;11.422;2023-01-16T06:36:05;95188.72;;;-3.43;100.00
17054;BME280;8643;48.824;11.422;2023-01-16T06:38:33;95174.69;;;-3.35;100.00
17054;BME280;8643;48.824;11.422;2023-01-16T06:41:04;95178.38;;;-3.31;100.00
17054;BME280;8643;48.824;11.422;2023-01-16T06:43:33;95162.56;;;-3.27;100.00
17054;BME280;8643;48.824;11.422;2023-01-16T06:46:02;95170.88;;;-3.29;100.00
17054;BME280;8643;48.824;11.422;2023-01-16T06:48:30;95165.25;;;-3.27;100.00
17054;BME280;8643;48.824;11.422;2023-01-16T06:50:59;95153.66;;;-3.23;100.00
17054;BME280;8643;48.824;11.422;2023-01-16T06:53:28;95165.09;;;-3.17;100.00
17054;BME280;8643;48.824;11.422;2023-01-16T06:55:56;95161.03;;;-3.15;100.00
17054;BME280;8643;48.824;11.422;2023-01-16T06:58:27;95160.09;;;-3.05;100.00
17054;BME280;8643;48.824;11.422;2023-01-16T07:00:56;95155.91;;;-2.92;100.00
17054;BME280;8643;48.824;11.422;2023-01-16T07:03:24;95152.66;;;-2.89;100.00
17054;BME280;8643;48.824;11.422;2023-01-16T07:05:53;95153.31;;;-2.78;100.00
17054;BME280;8643;48.824;11.422;2023-01-16T07:08:22;95136.38;;;-2.73;100.00
17054;BME280;8643;48.824;11.422;2023-01-16T07:10:50;95129.84;;;-2.67;100.00
17054;BME280;8643;48.824;11.422;2023-01-16T07:13:19;95118.63;;;-2.69;100.00
17054;BME280;8643;48.824;11.422;2023-01-16T07:15:55;95119.13;;;-2.67;100.00
17054;BME280;8643;48.824;11.422;2023-01-16T07:18:42;95104.28;;;-2.60;100.00
17054;BME280;8643;48.824;11.422;2023-01-16T07:21:34;95100.53;;;-2.45;100.00
17054;BME280;8643;48.824;11.422;2023-01-16T07:24:22;95096.09;;;-2.35;100.00
17054;BME280;8643;48.824;11.422;2023-01-16T07:26:55;95092.84;;;-2.32;100.00
17054;BME280;8643;48.824;11.422;2023-01-16T07:29:25;95092.75;;;-2.27;100.00
17054;BME280;8643;48.824;11.422;2023-01-16T07:31:56;95078.41;;;-2.04;100.00
17054;BME280;8643;48.824;11.422;2023-01-16T07:34:26;95076.59;;;-1.94;100.00
17054;BME280;8643;48.824;11.422;2023-01-16T07:36:54;95068.75;;;-1.77;100.00
17054;BME280;8643;48.824;11.422;2023-01-16T07:39:23;95066.75;;;-1.71;100.00
17054;BME280;8643;48.824;11.422;2023-01-16T07:41:51;95047.66;;;-1.56;100.00
17054;BME280;8643;48.824;11.422;2023-01-16T07:44:24;95045.66;;;-1.36;100.00
17054;BME280;8643;48.824;11.422;2023-01-16T07:46:54;95040.13;;;-1.17;100.00
17054;BME280;8643;48.824;11.422;2023-01-16T07:49:23;95037.69;;;-1.05;100.00
17054;BME280;8643;48.824;11.422;2023-01-16T07:51:52;95034.28;;;-0.97;100.00
17054;BME280;8643;48.824;11.422;2023-01-16T07:54:20;95024.41;;;-0.87;100.00
17054;BME280;8643;48.824;11.422;2023-01-16T07:56:50;95017.38;;;-0.75;100.00
17054;BME280;8643;48.824;11.422;2023-01-16T07:59:19;95019.78;;;-0.42;100.00
17054;BME280;8643;48.824;11.422;2023-01-16T08:01:48;95010.97;;;-0.33;100.00
17054;BME280;8643;48.824;11.422;2023-01-16T08:04:18;95004.50;;;-0.32;100.00
17054;BME280;8643;48.824;11.422;2023-01-16T08:06:47;95004.03;;;-0.26;100.00
17054;BME280;8643;48.824;11.422;2023-01-16T08:09:16;95002.22;;;0.01;100.00
17054;BME280;8643;48.824;11.422;2023-01-16T08:11:44;94989.00;;;0.22;100.00
17054;BME280;8643;48.824;11.422;2023-01-16T08:14:14;94983.31;;;0.32;100.00
17054;BME280;8643;48.824;11.422;2023-01-16T08:16:43;94980.66;;;0.76;100.00
17054;BME280;8643;48.824;11.422;2023-01-16T08:19:11;94975.41;;;1.06;100.00
17054;BME280;8643;48.824;11.422;2023-01-16T08:21:41;94958.22;;;1.54;100.00
17054;BME280;8643;48.824;11.422;2023-01-16T08:24:10;94955.97;;;1.65;100.00
17054;BME280;8643;48.824;11.422;2023-01-16T08:26:42;94952.03;;;1.54;100.00
17054;BME280;8643;48.824;11.422;2023-01-16T08:29:11;94947.31;;;1.33;100.00
17054;BME280;8643;48.824;11.422;2023-01-16T08:31:40;94939.56;;;1.23;100.00
17054;BME280;8643;48.824;11.422;2023-01-16T08:34:09;94931.06;;;1.03;100.00
17054;BME280;8643;48.824;11.422;2023-01-16T08:36:37;94932.81;;;0.82;100.00
17054;BME280;8643;48.824;11.422;2023-01-16T08:39:09;94920.78;;;0.62;100.00
17054;BME280;8643;48.824;11.422;2023-01-16T08:41:38;94909.38;;;0.47;100.00
17054;BME280;8643;48.824;11.422;2023-01-16T08:44:25;94907.13;;;0.41;100.00
17054;BME280;8643;48.824;11.422;2023-01-16T08:47:13;94895.09;;;0.29;100.00
17054;BME280;8643;48.824;11.422;2023-01-16T08:50:00;94899.53;;;0.34;100.00
17054;BME280;8643;48.824;11.422;2023-01-16T08:52:46;94884.19;;;0.34;100.00
17054;BME280;8643;48.824;11.422;2023-01-16T08:55:16;94874.03;;;0.40;100.00
17054;BME280;8643;48.824;11.422;2023-01-16T08:57:44;94875.00;;;0.44;100.00
17054;BME280;8643;48.824;11.422;2023-01-16T09:00:13;94865.81;;;0.45;100.00
17054;BME280;8643;48.824;11.422;2023-01-16T09:02:41;94874.22;;;0.52;100.00
17054;BME280;8643;48.824;11.422;2023-01-16T09:05:10;94866.59;;;0.54;100.00
17054;BME280;8643;48.824;11.422;2023-01-16T09:07:39;94870.41;;;0.62;100.00
17054;BME280;8643;48.824;11.422;2023-01-16T09:10:09;94865.94;;;0.75;100.00
17054;BME280;8643;48.824;11.422;2023-01-16T09:12:40;94864.34;;;0.83;100.00
17054;BME280;8643;48.824;11.422;2023-01-16T09:15:26;94858.00;;;0.87;100.00
17054;BME280;8643;48.824;11.422;2023-01-16T09:17:55;94854.97;;;0.89;100.00
17054;BME280;8643;48.824;11.422;2023-01-16T09:20:24;94842.59;;;0.88;100.00
17054;BME280;8643;48.824;11.422;2023-01-16T09:22:57;94839.72;;;1.02;100.00
17054;BME280;8643;48.824;11.422;2023-01-16T09:25:26;94828.81;;;0.98;100.00
17054;BME280;8643;48.824;11.422;2023-01-16T09:27:56;94818.63;;;1.04;100.00
17054;BME280;8643;48.824;11.422;2023-01-16T09:30:25;94815.28;;;1.07;100.00
17054;BME280;8643;48.824;11.422;2023-01-16T09:32:53;94812.72;;;1.10;100.00
17054;BME280;8643;48.824;11.422;2023-01-16T09:35:22;94797.78;;;1.22;100.00
17054;BME280;8643;48.824;11.422;2023-01-16T09:37:51;94792.38;;;1.31;100.00
17054;BME280;8643;48.824;11.422;2023-01-16T09:40:21;94791.47;;;1.48;100.00
17054;BME280;8643;48.824;11.422;2023-01-16T09:43:11;94787.88;;;1.43;100.00
17054;BME280;8643;48.824;11.422;2023-01-16T09:46:08;94790.91;;;1.33;100.00
17054;BME280;8643;48.824;11.422;2023-01-16T09:48:46;94782.00;;;1.41;100.00
17054;BME280;8643;48.824;11.422;2023-01-16T09:51:22;94776.41;;;1.46;100.00
17054;BME280;8643;48.824;11.422;2023-01-16T09:53:58;94771.56;;;1.61;100.00
17054;BME280;8643;48.824;11.422;2023-01-16T09:56:49;94753.50;;;1.61;100.00
17054;BME280;8643;48.824;11.422;2023-01-16T09:59:43;94756.19;;;1.61;100.00
17054;BME280;8643;48.824;11.422;2023-01-16T10:02:19;94746.56;;;1.73;100.00
17054;BME280;8643;48.824;11.422;2023-01-16T10:04:50;94731.22;;;1.86;100.00
17054;BME280;8643;48.824;11.422;2023-01-16T10:07:54;94714.44;;;2.01;100.00
17054;BME280;8643;48.824;11.422;2023-01-16T10:10:47;94705.00;;;2.28;100.00
17054;BME280;8643;48.824;11.422;2023-01-16T10:13:50;94702.31;;;2.41;100.00
17054;BME280;8643;48.824;11.422;2023-01-16T10:16:31;94688.91;;;2.44;100.00
17054;BME280;8643;48.824;11.422;2023-01-16T10:19:07;94688.03;;;2.52;100.00
17054;BME280;8643;48.824;11.422;2023-01-16T10:21:51;94681.41;;;2.50;100.00
17054;BME280;8643;48.824;11.422;2023-01-16T10:24:35;94671.44;;;2.29;100.00
17054;BME280;8643;48.824;11.422;2023-01-16T10:27:16;94667.84;;;2.25;100.00
17054;BME280;8643;48.824;11.422;2023-01-16T10:29:51;94655.44;;;2.24;100.00
17054;BME280;8643;48.824;11.422;2023-01-16T10:32:29;94649.66;;;2.47;100.00
17054;BME280;8643;48.824;11.422;2023-01-16T10:35:06;94641.34;;;2.89;100.00
17054;BME280;8643;48.824;11.422;2023-01-16T10:37:38;94645.63;;;3.15;100.00
17054;BME280;8643;48.824;11.422;2023-01-16T10:40:14;94628.91;;;3.25;100.00
17054;BME280;8643;48.824;11.422;2023-01-16T10:42:48;94624.63;;;3.24;100.00
17054;BME280;8643;48.824;11.422;2023-01-16T10:45:36;94615.25;;;3.34;100.00
17054;BME280;8643;48.824;11.422;2023-01-16T10:48:29;94606.38;;;3.61;100.00
17054;BME280;8643;48.824;11.422;2023-01-16T10:51:16;94594.00;;;3.76;100.00
17054;BME280;8643;48.824;11.422;2023-01-16T10:53:45;94579.91;;;3.99;100.00
17054;BME280;8643;48.824;11.422;2023-01-16T10:56:14;94565.59;;;3.98;100.00
17054;BME280;8643;48.824;11.422;2023-01-16T10:58:42;94556.56;;;3.78;100.00
17054;BME280;8643;48.824;11.422;2023-01-16T11:01:15;94550.03;;;3.51;100.00
17054;BME280;8643;48.824;11.422;2023-01-16T11:03:48;94539.69;;;3.69;100.00
17054;BME280;8643;48.824;11.422;2023-01-16T11:06:20;94528.47;;;3.99;100.00
17054;BME280;8643;48.824;11.422;2023-01-16T11:08:54;94518.69;;;4.10;100.00
17054;BME280;8643;48.824;11.422;2023-01-16T11:11:23;94516.34;;;4.25;100.00
17054;BME280;8643;48.824;11.422;2023-01-16T11:14:13;94506.38;;;4.29;100.00
17054;BME280;8643;48.824;11.422;2023-01-16T11:17:21;94494.06;;;4.15;100.00
17054;BME280;8643;48.824;11.422;2023-01-16T11:20:12;94478.69;;;4.19;100.00
17054;BME280;8643;48.824;11.422;2023-01-16T11:22:47;94473.47;;;4.11;100.00
17054;BME280;8643;48.824;11.422;2023-01-16T11:25:17;94465.22;;;4.07;100.00
17054;BME280;8643;48.824;11.422;2023-01-16T11:27:50;94467.59;;;3.93;100.00
17054;BME280;8643;48.824;11.422;2023-01-16T11:30:22;94452.22;;;3.81;100.00
17054;BME280;8643;48.824;11.422;2023-01-16T11:32:56;94461.63;;;3.71;100.00
17054;BME280;8643;48.824;11.422;2023-01-16T11:35:32;94452.19;;;3.65;100.00
17054;BME280;8643;48.824;11.422;2023-01-16T11:38:03;94442.88;;;3.62;100.00
17054;BME280;8643;48.824;11.422;2023-01-16T11:40:45;94432.06;;;3.62;100.00
17054;BME280;8643;48.824;11.422;2023-01-16T11:43:16;94422.44;;;3.81;99.88
17054;BME280;8643;48.824;11.422;2023-01-16T11:46:09;94409.53;;;3.90;100.00
17054;BME280;8643;48.824;11.422;2023-01-16T11:48:53;94389.50;;;4.11;97.37
17054;BME280;8643;48.824;11.422;2023-01-16T11:51:29;94386.63;;;4.39;100.00
17054;BME280;8643;48.824;11.422;2023-01-16T11:54:00;94379.22;;;4.55;100.00
17054;BME280;8643;48.824;11.422;2023-01-16T11:56:45;94359.78;;;4.50;100.00
17054;BME280;8643;48.824;11.422;2023-01-16T11:59:43;94337.97;;;4.27;100.00
17054;BME280;8643;48.824;11.422;2023-01-16T12:02:33;94329.16;;;3.94;97.92
17054;BME280;8643;48.824;11.422;2023-01-16T12:05:18;94320.38;;;3.81;100.00
17054;BME280;8643;48.824;11.422;2023-01-16T12:08:32;94311.34;;;3.93;100.00
17054;BME280;8643;48.824;11.422;2023-01-16T12:11:08;94307.59;;;3.98;100.00
17054;BME280;8643;48.824;11.422;2023-01-16T12:13:46;94297.84;;;4.13;98.32
17054;BME280;8643;48.824;11.422;2023-01-16T12:16:55;94306.91;;;4.20;97.67
17054;BME280;8643;48.824;11.422;2023-01-16T12:20:02;94317.03;;;4.43;97.88
17054;BME280;8643;48.824;11.422;2023-01-16T12:22:49;94322.72;;;4.77;94.25
17054;BME280;8643;48.824;11.422;2023-01-16T12:25:33;94334.16;;;5.09;92.27
17054;BME280;8643;48.824;11.422;2023-01-16T12:28:19;94326.66;;;5.45;91.59
17054;BME280;8643;48.824;11.422;2023-01-16T12:31:05;94336.84;;;5.52;91.64
17054;BME280;8643;48.824;11.422;2023-01-16T12:33:57;94337.13;;;5.70;90.60
17054;BME280;8643;48.824;11.422;2023-01-16T12:36:40;94333.00;;;5.80;85.27
17054;BME280;8643;48.824;11.422;2023-01-16T12:39:22;94337.75;;;5.60;85.29
17054;BME280;8643;48.824;11.422;2023-01-16T12:42:04;94331.97;;;5.38;86.32
17054;BME280;8643;48.824;11.422;2023-01-16T12:45:03;94331.13;;;4.91;87.05
17054;BME280;8643;48.824;11.422;2023-01-16T12:47:53;94332.72;;;4.73;91.08
17054;BME280;8643;48.824;11.422;2023-01-16T12:50:34;94311.75;;;4.70;89.93
17054;BME280;8643;48.824;11.422;2023-01-16T12:53:29;94305.19;;;4.71;92.67
17054;BME280;8643;48.824;11.422;2023-01-16T12:56:13;94294.50;;;4.58;91.70
17054;BME280;8643;48.824;11.422;2023-01-16T12:58:53;94298.88;;;4.44;90.51
17054;BME280;8643;48.824;11.422;2023-01-16T13:01:28;94288.81;;;4.44;89.52
17054;BME280;8643;48.824;11.422;2023-01-16T13:04:02;94291.94;;;4.46;94.26
17054;BME280;8643;48.824;11.422;2023-01-16T13:06:43;94300.63;;;4.36;91.71
17054;BME280;8643;48.824;11.422;2023-01-16T13:09:19;94297.50;;;4.34;90.78
17054;BME280;8643;48.824;11.422;2023-01-16T13:12:05;94303.47;;;4.23;90.02
17054;BME280;8643;48.824;11.422;2023-01-16T13:15:07;94321.94;;;4.18;91.91
17054;BME280;8643;48.824;11.422;2023-01-16T13:17:43;94324.94;;;4.13;88.46
17054;BME280;8643;48.824;11.422;2023-01-16T13:20:16;94314.09;;;4.13;89.77
17054;BME280;8643;48.824;11.422;2023-01-16T13:22:49;94308.69;;;4.13;89.17
17054;BME280;8643;48.824;11.422;2023-01-16T13:25:26;94310.44;;;4.05;90.60
17054;BME280;8643;48.824;11.422;2023-01-16T13:28:02;94312.19;;;3.97;92.27
17054;BME280;8643;48.824;11.422;2023-01-16T13:30:32;94324.53;;;3.95;91.07
17054;BME280;8643;48.824;11.422;2023-01-16T13:33:04;94326.78;;;3.93;91.40
17054;BME280;8643;48.824;11.422;2023-01-16T13:35:42;94319.47;;;3.93;91.86
17054;BME280;8643;48.824;11.422;2023-01-16T13:38:44;94316.41;;;3.95;90.02